Latest Weather Observations for Barimunya

IDW60801

Issued at 8:33 am WST Tuesday 26 July 2016 (issued every 30 minutes, with the page automatically refreshed every 10 minutes)

About weather observations | Map of weather stations | Latest weather observations for WA | Other Formats
Station Details ID: 505053 Name: BARIMUNYA Lat: -22.67 Lon: 119.16 Height: 629.17 m
Data from the previous 72 hours. | See also: Recent months for locations in Western Australia
Date/Time
WST
Temp
°C
App
Temp
°C
Dew
Point
°C
Rel
Hum
%
Delta-T
°C
Wind Press
QNH
hPa
Press
MSL
hPa
Rain since
9am
mm
Dir  Spd
km/h
Gust
km/h
Spd
kts
Gust
kts
26/08:30am 14.2 6.6 -1.8 33 6.7 SE 28 37 15 20 1024.0 1022.9 0.2
26/08:00am 14.0 6.9 -1.6 34 6.5 SE 26 35 14 19 1023.6 1022.5 0.2
26/07:30am 13.3 7.3 -1.4 36 6.1 SE 20 32 11 17 1023.2 1022.1 0.2
26/07:00am 13.1 7.1 -1.2 37 6.0 SE 20 26 11 14 1022.9 1021.7 0.2
26/06:30am 12.9 7.0 -0.7 39 5.8 SE 20 24 11 13 1022.7 1021.5 0.2
26/06:00am 13.3 7.6 -0.7 38 5.9 SE 19 22 10 12 1022.5 1021.3 0.2
26/05:30am 13.5 7.8 -0.5 38 6.0 SE 19 24 10 13 1022.5 1021.3 0.2
26/05:00am 13.9 8.1 -0.2 38 6.1 SE 20 24 11 13 1021.9 1020.8 0.2
26/04:30am 14.2 8.4 0.1 38 6.1 SE 20 26 11 14 1021.5 1020.3 0.2
26/04:00am 14.6 9.1 0.5 38 6.2 SE 19 24 10 13 1021.5 1020.3 0.2
26/03:30am 14.6 9.1 0.5 38 6.2 SE 19 24 10 13 1021.7 1020.5 0.2
26/03:00am 15.1 10.0 0.5 37 6.4 SE 17 24 9 13 1021.8 1020.7 0.2
26/02:30am 15.2 10.5 1.0 38 6.4 SE 15 20 8 11 1021.5 1020.3 0.2
26/02:00am 15.7 11.1 1.4 38 6.5 SE 15 19 8 10 1021.9 1020.8 0.2
26/01:30am 15.8 12.1 2.2 40 6.3 SE 11 13 6 7 1022.1 1021.0 0.2
26/01:00am 15.5 12.5 4.3 47 5.4 SSE 9 11 5 6 1022.2 1021.1 0.2
26/12:30am 15.7 13.1 4.4 47 5.5 S 7 9 4 5 1022.3 1021.2 0.2
26/12:00am 15.7 13.1 4.4 47 5.4 S 7 11 4 6 1022.3 1021.2 0.2
 
Date/Time
WST
Temp
°C
App
Temp
°C
Dew
Point
°C
Rel
Hum
%
Delta-T
°C
Wind Press
QNH
hPa
Press
MSL
hPa
Rain since
9am
mm
Dir  Spd
km/h
Gust
km/h
Spd
kts
Gust
kts
25/11:30pm 16.7 13.1 3.1 40 6.4 SE 11 13 6 7 1022.1 1021.0 0.2
25/11:00pm 16.3 13.9 4.4 45 5.8 SE 6 7 3 4 1022.2 1021.1 0.2
25/10:30pm 16.1 13.2 4.8 47 5.5 SSE 9 11 5 6 1022.6 1021.4 0.2
25/10:00pm 15.9 12.2 4.6 47 5.5 S 13 15 7 8 1022.6 1021.4 0.2
25/09:30pm 14.6 12.8 7.2 61 3.8 SSE 6 9 3 5 1022.5 1021.3 0.2
25/09:00pm 15.4 14.1 4.2 47 5.4 CALM 0 0 0 0 1022.0 1020.9 0.2
25/08:30pm 15.6 14.7 6.1 53 4.7 CALM 0 0 0 0 1021.9 1020.8 0.2
25/08:00pm 17.0 14.4 4.0 42 6.3 SSE 7 9 4 5 1021.6 1020.4 0.2
25/07:30pm 17.3 16.0 6.2 48 5.6 SSE 2 6 1 3 1021.3 1020.1 0.2
25/07:00pm 18.0 15.5 3.5 38 7.0 SSE 6 9 3 5 1021.2 1020.0 0.2
25/06:30pm 18.4 15.1 2.7 35 7.5 SSE 9 11 5 6 1020.9 1019.7 0.2
25/06:00pm 18.5 15.2 2.4 34 7.6 SE 9 13 5 7 1020.4 1019.3 0.2
25/05:30pm 18.9 14.8 2.3 33 7.9 SE 13 17 7 9 1020.1 1018.9 0.2
25/05:00pm 19.3 15.2 2.2 32 8.1 SSE 13 15 7 8 1020.2 1019.0 0.2
25/04:30pm 19.4 15.2 1.9 31 8.3 SSE 13 17 7 9 1020.3 1019.1 0.2
25/04:00pm 19.5 16.0 1.5 30 8.4 SE 9 19 5 10 1019.9 1018.7 0.2
25/03:30pm 19.4 14.9 1.9 31 8.3 ESE 15 20 8 11 1019.7 1018.5 0.2
25/03:00pm 19.8 15.7 2.2 31 8.4 SE 13 28 7 15 1019.7 1018.5 0.2
25/02:30pm 19.9 15.7 1.4 29 8.7 SE 13 20 7 11 1019.9 1018.7 0.2
25/02:00pm 19.5 14.6 1.9 31 8.3 SE 17 20 9 11 1020.1 1018.9 0.2
25/01:30pm 18.9 14.3 1.4 31 8.2 ESE 15 19 8 10 1020.4 1019.3 0.2
25/01:00pm 18.9 14.0 2.3 33 7.9 SE 17 24 9 13 1020.8 1019.6 0.2
25/12:30pm 18.9 14.5 2.7 34 7.7 SE 15 22 8 12 1021.3 1020.1 0.2
25/12:00pm 18.5 13.1 2.4 34 7.6 ESE 20 28 11 15 1021.7 1020.5 0.2
25/11:30am 17.9 12.6 1.8 34 7.5 ESE 19 24 10 13 1022.5 1021.3 0.2
25/11:00am 17.2 11.7 2.0 36 7.0 ESE 20 30 11 16 1022.8 1021.6 0.2
25/10:30am 16.6 10.8 2.2 38 6.7 SE 22 28 12 15 1023.2 1022.1 0.0
25/10:00am 16.2 10.3 1.5 37 6.7 ESE 22 30 12 16 1023.6 1022.5 0.0
25/09:30am 15.2 8.5 1.4 39 6.2 ESE 26 33 14 18 1023.4 1022.3 0.0
25/09:00am 14.5 8.1 1.1 40 6.0 ESE 24 33 13 18 1023.3 1022.2 1.6
25/08:30am 14.0 8.4 1.3 42 5.7 ESE 20 30 11 16 1023.3 1022.2 1.6
25/08:00am 13.0 8.1 2.0 47 4.9 SE 17 24 9 13 1023.0 1021.8 1.6
25/07:30am 12.4 7.4 1.4 47 4.9 ESE 17 22 9 12 1022.8 1021.6 1.6
25/07:00am 11.9 8.2 2.1 51 4.4 SE 11 15 6 8 1022.7 1021.5 1.6
25/06:30am 11.9 7.3 1.8 50 4.5 SE 15 19 8 10 1022.2 1021.1 1.6
25/06:00am 12.1 8.5 2.8 53 4.2 SE 11 15 6 8 1022.1 1021.0 1.6
25/05:30am 12.2 8.3 3.2 54 4.1 SE 13 19 7 10 1021.6 1020.4 1.6
25/05:00am 12.3 8.1 3.8 56 3.9 SE 15 19 8 10 1021.4 1020.2 1.6
25/04:30am 12.5 9.1 4.0 56 4.0 SE 11 15 6 8 1021.4 1020.2 1.6
25/04:00am 12.6 8.5 4.1 56 4.0 SE 15 17 8 9 1021.1 1019.9 1.6
25/03:30am 12.6 9.4 5.1 60 3.6 SE 11 15 6 8 1021.5 1020.3 1.6
25/03:00am 12.5 8.6 5.4 62 3.4 SE 15 17 8 9 1021.4 1020.2 1.6
25/02:30am 12.6 9.6 5.8 63 3.3 SE 11 13 6 7 1021.4 1020.2 1.6
25/02:00am 12.7 9.8 6.7 67 3.0 SE 11 17 6 9 1021.7 1020.5 1.6
25/01:30am 12.5 11.9 7.6 72 2.5 CALM 0 0 0 0 1022.0 1020.9 1.6
25/01:00am 12.8 10.8 7.0 68 2.9 SE 7 13 4 7 1022.0 1020.9 1.6
25/12:30am 12.8 10.0 6.8 67 3.0 SE 11 13 6 7 1022.0 1020.9 1.6
25/12:00am 12.8 10.6 7.9 72 2.5 SSE 9 11 5 6 1022.0 1020.9 1.6
 
Date/Time
WST
Temp
°C
App
Temp
°C
Dew
Point
°C
Rel
Hum
%
Delta-T
°C
Wind Press
QNH
hPa
Press
MSL
hPa
Rain since
9am
mm
Dir  Spd
km/h
Gust
km/h
Spd
kts
Gust
kts
24/11:30pm 13.0 10.7 7.5 69 2.8 SSE 9 11 5 6 1022.3 1021.2 1.6
24/11:00pm 13.0 11.1 7.7 70 2.7 SSE 7 11 4 6 1022.7 1021.5 1.6
24/10:30pm 12.9 11.2 8.4 74 2.3 SSE 7 9 4 5 1022.7 1021.5 1.6
24/10:00pm 12.7 11.2 9.2 79 1.8 SSE 7 9 4 5 1022.7 1021.5 1.6
24/09:30pm 13.0 11.6 8.7 75 2.2 SSE 6 7 3 4 1023.0 1021.8 1.6
24/09:00pm 12.8 11.3 9.3 79 1.8 SE 7 9 4 5 1023.1 1021.9 1.6
24/08:30pm 12.8 11.3 9.1 78 1.9 SE 7 9 4 5 1023.1 1021.9 1.6
24/08:00pm 12.8 11.3 9.1 78 1.9 SE 7 9 4 5 1023.1 1021.9 1.6
24/07:30pm 12.7 11.4 9.3 80 1.8 SE 6 9 3 5 1022.8 1021.6 1.6
24/07:00pm 12.7 11.3 9.5 81 1.7 SE 7 9 4 5 1022.3 1021.2 1.6
24/06:30pm 12.8 11.4 9.4 80 1.8 SE 7 11 4 6 1022.1 1021.0 1.4
24/06:00pm 13.0 11.6 9.4 79 1.9 SE 7 9 4 5 1021.7 1020.5 1.4
24/05:30pm 13.1 11.7 9.5 79 1.9 SSE 7 11 4 6 1021.7 1020.5 1.2
24/05:00pm 14.0 9.9 8.0 67 3.1 SE 19 24 10 13 1021.3 1020.1 0.8
24/04:30pm 14.7 11.2 7.0 60 3.9 ESE 15 17 8 9 1021.1 1019.9 0.8
24/04:00pm 14.7 11.0 8.0 64 3.4 SE 17 20 9 11 1021.0 1019.8 0.8
24/03:30pm 14.3 10.9 7.8 65 3.3 ESE 15 24 8 13 1020.8 1019.6 0.8
24/03:00pm 14.2 11.0 8.4 68 3.0 ESE 15 19 8 10 1021.0 1019.8 0.8
24/02:30pm 14.1 11.3 9.9 76 2.2 SE 15 22 8 12 1021.0 1019.8 0.8
24/02:00pm 14.8 10.3 7.1 60 3.9 SE 20 26 11 14 1021.3 1020.1 0.4
24/01:30pm 14.7 11.6 8.9 68 3.0 SE 15 19 8 10 1021.5 1020.3 0.4
24/01:00pm 14.5 11.8 8.9 69 2.9 SE 13 20 7 11 1021.6 1020.4 0.2
24/12:30pm 14.9 10.5 6.5 57 4.2 SE 19 26 10 14 1021.9 1020.8 0.2
24/12:00pm 15.2 10.6 6.5 56 4.4 SE 20 26 11 14 1022.3 1021.2 0.2
24/11:30am 14.3 9.9 7.4 63 3.5 SE 20 26 11 14 1022.6 1021.4 0.0
24/11:00am 14.6 9.5 5.9 56 4.3 ESE 22 32 12 17 1023.1 1021.9 0.0
24/10:30am 15.0 9.9 6.0 55 4.5 ESE 22 30 12 16 1023.5 1022.4 0.0
24/10:00am 14.5 8.6 5.8 56 4.3 ESE 26 35 14 19 1023.6 1022.5 0.0
24/09:30am 13.7 6.9 5.3 57 4.1 SE 30 39 16 21 1023.7 1022.6 0.0
24/09:00am 13.3 7.4 5.7 60 3.7 SE 26 32 14 17 1023.7 1022.6 0.0
24/08:30am 13.1 7.6 6.0 62 3.5 SE 24 33 13 18 1023.3 1022.2 0.0
24/08:00am 12.6 8.2 6.4 66 3.0 SE 19 28 10 15 1022.8 1021.6 0.0
24/07:30am 12.4 8.0 6.7 68 2.8 SE 19 26 10 14 1022.2 1021.1 0.0
24/07:00am 12.3 8.0 6.8 69 2.7 SE 19 24 10 13 1022.1 1021.0 0.0
24/06:30am 12.3 7.8 7.0 70 2.6 SE 20 32 11 17 1021.8 1020.7 0.0
24/06:00am 12.4 7.6 7.3 71 2.5 SE 22 32 12 17 1021.6 1020.4 0.0
24/05:30am 12.3 8.7 8.2 76 2.1 SE 17 22 9 12 1021.2 1020.0 0.0
24/05:00am 12.4 8.4 8.3 76 2.1 SE 19 24 10 13 1021.0 1019.8 0.0
24/04:30am 12.3 7.7 8.0 75 2.2 SE 22 26 12 14 1020.8 1019.6 0.0
24/04:00am 12.4 8.7 8.1 75 2.2 SE 17 22 9 12 1021.0 1019.8 0.0
24/03:30am 12.5 8.5 8.2 75 2.2 SE 19 24 10 13 1021.0 1019.8 0.0
24/03:00am 12.5 8.6 8.8 78 1.9 SE 19 24 10 13 1020.4 1019.3 0.0
24/02:30am 12.6 10.1 9.6 82 1.6 SE 13 19 7 10 1021.0 1019.8 0.0
24/02:00am 12.5 9.7 9.9 84 1.4 SSE 15 19 8 10 1020.6 1019.5 0.0
24/01:30am 12.6 10.2 10.0 84 1.4 SSE 13 17 7 9 1020.8 1019.6 0.0
24/01:00am 12.6 10.1 9.8 83 1.5 SSE 13 17 7 9 1021.0 1019.8 0.0
24/12:30am 12.6 8.9 9.6 82 1.6 SSE 19 24 10 13 1020.5 1019.4 0.0
24/12:00am 12.7 9.0 9.5 81 1.7 SSE 19 26 10 14 1020.9 1019.7 0.0
 
Date/Time
WST
Temp
°C
App
Temp
°C
Dew
Point
°C
Rel
Hum
%
Delta-T
°C
Wind Press
QNH
hPa
Press
MSL
hPa
Rain since
9am
mm
Dir  Spd
km/h
Gust
km/h
Spd
kts
Gust
kts
23/11:30pm 12.7 9.1 9.9 83 1.5 SSE 19 24 10 13 1021.1 1019.9 0.0
23/11:05pm 12.7 9.0 10.2 85 1.3 SSE 20 26 11 14 1021.2 1020.0 0.0
23/11:00pm 12.7 9.1 10.4 86 1.2 SSE 20 26 11 14 1021.3 1020.1 0.0
23/10:30pm 12.7 10.5 10.9 89 1.0 SSE 13 17 7 9 1022.0 1020.9 0.0
23/10:00pm 12.6 9.3 10.8 89 1.0 SE 19 24 10 13 1021.3 1020.1 0.0
23/09:30pm 12.7 8.8 10.9 89 1.0 SE 22 26 12 14 1021.0 1019.8 0.0
23/09:27pm 12.8 9.3 10.9 88 1.0 SE 20 26 11 14 1021.0 1019.8 0.0
23/09:00pm 13.9 12.3 11.6 86 1.3 ESE 11 17 6 9 1020.6 1019.5 0.0
23/08:30pm 13.6 11.7 11.7 88 1.0 E 13 19 7 10 1020.0 1018.8 0.0
23/08:00pm 13.9 11.6 11.6 86 1.3 SE 15 20 8 11 1020.3 1019.1 0.0
23/07:30pm 14.6 11.8 11.2 80 1.9 SE 17 20 9 11 1020.0 1018.8 0.0
23/07:00pm 15.3 12.5 11.5 78 2.1 SSE 17 20 9 11 1020.1 1018.9 0.0
23/06:30pm 15.7 13.1 11.9 78 2.1 SSE 17 20 9 11 1019.9 1018.7 0.0
23/06:00pm 16.9 14.0 9.6 62 3.9 SSE 15 20 8 11 1019.6 1018.4 0.0
23/05:30pm 17.2 13.8 7.5 53 5.0 SE 15 19 8 10 1019.3 1018.1 0.0
23/05:00pm 17.6 14.8 7.1 50 5.4 SE 11 17 6 9 1019.2 1018.0 0.0
23/04:30pm 17.9 14.2 6.4 47 5.9 SE 15 20 8 11 1018.8 1017.6 0.0
23/04:00pm 18.4 15.5 6.3 45 6.2 ESE 11 13 6 7 1018.6 1017.4 0.0
23/03:30pm 18.4 15.0 7.5 49 5.7 SSE 15 20 8 11 1018.6 1017.4 0.0
23/03:00pm 18.5 15.2 6.4 45 6.2 SSE 13 17 7 9 1018.7 1017.5 0.0
23/02:30pm 18.4 14.6 5.9 44 6.3 SSE 15 19 8 10 1018.7 1017.5 0.0
23/02:00pm 18.2 14.0 5.8 44 6.3 SSE 17 22 9 12 1018.9 1017.7 0.0
23/01:30pm 18.1 13.9 5.7 44 6.3 SSE 17 24 9 13 1019.3 1018.1 0.0
23/01:00pm 18.0 14.6 5.9 45 6.1 SSE 13 20 7 11 1019.4 1018.2 0.0
23/12:30pm 17.9 14.9 5.8 45 6.1 SE 11 17 6 9 1019.4 1018.2 0.0
23/12:00pm 16.9 12.7 3.9 42 6.3 SE 15 20 8 11 1019.9 1018.7 0.0
23/11:30am 16.7 12.6 4.1 43 6.1 SE 15 20 8 11 1020.5 1019.4 0.0
23/11:00am 16.1 11.5 3.9 44 5.8 SSE 17 20 9 11 1021.1 1019.9 0.0
23/10:30am 15.7 10.9 4.4 47 5.5 S 19 24 10 13 1021.7 1020.5 0.0
23/10:00am 15.2 11.5 4.3 48 5.2 SE 13 17 7 9 1021.9 1020.8 0.0
23/09:30am 14.7 11.4 4.7 51 4.8 SE 11 15 6 8 1022.3 1021.2 0.0
23/09:00am 14.4 10.8 5.2 54 4.5 SSE 13 19 7 10 1021.7 1020.5 0.0

Other Formats:

Comma delimited format used in spreadsheet applications
http://www.bom.gov.au/fwo/IDW60801/IDW60801.99313.axf

JavaScript Object Notation format (JSON) in row-major order
http://www.bom.gov.au/fwo/IDW60801/IDW60801.99313.json